sensor_id;sensor_type;location;lat;lon;timestamp;P1;durP1;ratioP1;P2;durP2;ratioP2
23578;SDS011;11967;50.852;4.400;2023-10-13T00:01:21;28.50;;;16.52;;
23578;SDS011;11967;50.852;4.400;2023-10-13T00:03:47;32.17;;;17.10;;
23578;SDS011;11967;50.852;4.400;2023-10-13T00:06:13;32.25;;;16.20;;
23578;SDS011;11967;50.852;4.400;2023-10-13T00:08:38;27.38;;;17.00;;
23578;SDS011;11967;50.852;4.400;2023-10-13T00:11:11;27.77;;;17.05;;
23578;SDS011;11967;50.852;4.400;2023-10-13T00:13:37;27.80;;;16.52;;
23578;SDS011;11967;50.852;4.400;2023-10-13T00:16:15;24.17;;;16.30;;
23578;SDS011;11967;50.852;4.400;2023-10-13T00:18:52;33.53;;;17.85;;
23578;SDS011;11967;50.852;4.400;2023-10-13T00:21:24;27.25;;;17.77;;
23578;SDS011;11967;50.852;4.400;2023-10-13T00:24:01;27.77;;;17.75;;
23578;SDS011;11967;50.852;4.400;2023-10-13T00:26:30;29.48;;;17.45;;
23578;SDS011;11967;50.852;4.400;2023-10-13T00:29:01;33.97;;;18.70;;
23578;SDS011;11967;50.852;4.400;2023-10-13T00:31:43;28.95;;;18.35;;
23578;SDS011;11967;50.852;4.400;2023-10-13T00:34:13;29.17;;;17.25;;
23578;SDS011;11967;50.852;4.400;2023-10-13T00:36:54;35.38;;;18.55;;
23578;SDS011;11967;50.852;4.400;2023-10-13T00:39:57;37.03;;;19.50;;
23578;SDS011;11967;50.852;4.400;2023-10-13T00:42:25;32.40;;;19.80;;
23578;SDS011;11967;50.852;4.400;2023-10-13T00:45:12;31.35;;;19.60;;
23578;SDS011;11967;50.852;4.400;2023-10-13T00:47:42;36.38;;;19.33;;
23578;SDS011;11967;50.852;4.400;2023-10-13T00:50:21;38.53;;;20.23;;
23578;SDS011;11967;50.852;4.400;2023-10-13T00:52:49;33.05;;;19.27;;
23578;SDS011;11967;50.852;4.400;2023-10-13T00:55:18;37.80;;;19.83;;
23578;SDS011;11967;50.852;4.400;2023-10-13T00:57:51;35.17;;;20.33;;
23578;SDS011;11967;50.852;4.400;2023-10-13T01:00:20;32.40;;;19.75;;
23578;SDS011;11967;50.852;4.400;2023-10-13T01:02:50;42.10;;;20.52;;
23578;SDS011;11967;50.852;4.400;2023-10-13T01:05:21;36.97;;;20.27;;
23578;SDS011;11967;50.852;4.400;2023-10-13T01:07:48;33.50;;;22.10;;
23578;SDS011;11967;50.852;4.400;2023-10-13T01:10:19;34.67;;;21.00;;
23578;SDS011;11967;50.852;4.400;2023-10-13T01:12:48;37.10;;;21.48;;
23578;SDS011;11967;50.852;4.400;2023-10-13T01:15:17;37.20;;;21.98;;
23578;SDS011;11967;50.852;4.400;2023-10-13T01:17:45;35.53;;;21.38;;
23578;SDS011;11967;50.852;4.400;2023-10-13T01:20:12;35.42;;;21.38;;
23578;SDS011;11967;50.852;4.400;2023-10-13T01:22:51;37.08;;;21.75;;
23578;SDS011;11967;50.852;4.400;2023-10-13T01:25:23;37.92;;;21.25;;
23578;SDS011;11967;50.852;4.400;2023-10-13T01:27:52;33.13;;;21.60;;
23578;SDS011;11967;50.852;4.400;2023-10-13T01:30:19;34.30;;;20.75;;
23578;SDS011;11967;50.852;4.400;2023-10-13T01:32:50;35.65;;;20.13;;
23578;SDS011;11967;50.852;4.400;2023-10-13T01:35:17;34.20;;;19.98;;
23578;SDS011;11967;50.852;4.400;2023-10-13T01:38:00;34.13;;;20.40;;
23578;SDS011;11967;50.852;4.400;2023-10-13T01:40:26;35.65;;;19.88;;
23578;SDS011;11967;50.852;4.400;2023-10-13T01:42:55;33.83;;;18.95;;
23578;SDS011;11967;50.852;4.400;2023-10-13T01:45:21;35.00;;;19.10;;
23578;SDS011;11967;50.852;4.400;2023-10-13T01:47:47;33.15;;;18.60;;
23578;SDS011;11967;50.852;4.400;2023-10-13T01:50:15;26.98;;;17.10;;
23578;SDS011;11967;50.852;4.400;2023-10-13T01:52:54;29.52;;;15.65;;
23578;SDS011;11967;50.852;4.400;2023-10-13T01:55:39;26.30;;;15.43;;
23578;SDS011;11967;50.852;4.400;2023-10-13T01:58:14;36.67;;;16.42;;
23578;SDS011;11967;50.852;4.400;2023-10-13T02:00:43;23.63;;;15.00;;
23578;SDS011;11967;50.852;4.400;2023-10-13T02:03:11;23.58;;;14.02;;
23578;SDS011;11967;50.852;4.400;2023-10-13T02:05:44;27.17;;;15.20;;
23578;SDS011;11967;50.852;4.400;2023-10-13T02:10:47;24.30;;;13.65;;
23578;SDS011;11967;50.852;4.400;2023-10-13T02:13:15;27.15;;;13.25;;
23578;SDS011;11967;50.852;4.400;2023-10-13T02:15:42;22.00;;;13.35;;
23578;SDS011;11967;50.852;4.400;2023-10-13T02:18:13;22.80;;;12.88;;
23578;SDS011;11967;50.852;4.400;2023-10-13T02:20:46;27.25;;;14.40;;
23578;SDS011;11967;50.852;4.400;2023-10-13T02:25:45;20.42;;;12.68;;
23578;SDS011;11967;50.852;4.400;2023-10-13T02:28:11;21.42;;;12.77;;
23578;SDS011;11967;50.852;4.400;2023-10-13T02:30:40;23.25;;;12.48;;
23578;SDS011;11967;50.852;4.400;2023-10-13T02:33:13;22.60;;;12.55;;
23578;SDS011;11967;50.852;4.400;2023-10-13T02:35:40;21.10;;;12.13;;
23578;SDS011;11967;50.852;4.400;2023-10-13T02:38:07;22.92;;;12.50;;
23578;SDS011;11967;50.852;4.400;2023-10-13T02:40:36;23.85;;;11.80;;
23578;SDS011;11967;50.852;4.400;2023-10-13T02:43:03;24.17;;;11.45;;
23578;SDS011;11967;50.852;4.400;2023-10-13T02:45:32;20.75;;;12.35;;
23578;SDS011;11967;50.852;4.400;2023-10-13T02:48:02;18.33;;;10.98;;
23578;SDS011;11967;50.852;4.400;2023-10-13T02:50:38;20.13;;;11.65;;
23578;SDS011;11967;50.852;4.400;2023-10-13T02:53:08;23.65;;;11.85;;
23578;SDS011;11967;50.852;4.400;2023-10-13T02:55:38;24.25;;;12.30;;
23578;SDS011;11967;50.852;4.400;2023-10-13T02:58:14;23.08;;;11.52;;
23578;SDS011;11967;50.852;4.400;2023-10-13T03:00:39;18.55;;;11.65;;
23578;SDS011;11967;50.852;4.400;2023-10-13T03:03:06;21.48;;;11.55;;
23578;SDS011;11967;50.852;4.400;2023-10-13T03:05:35;22.27;;;11.30;;
23578;SDS011;11967;50.852;4.400;2023-10-13T03:08:04;26.35;;;11.38;;
23578;SDS011;11967;50.852;4.400;2023-10-13T03:10:31;21.17;;;11.35;;
23578;SDS011;11967;50.852;4.400;2023-10-13T03:12:57;26.40;;;11.68;;
23578;SDS011;11967;50.852;4.400;2023-10-13T03:15:24;20.67;;;11.48;;
23578;SDS011;11967;50.852;4.400;2023-10-13T03:17:56;19.17;;;10.68;;
23578;SDS011;11967;50.852;4.400;2023-10-13T03:20:25;21.23;;;10.65;;
23578;SDS011;11967;50.852;4.400;2023-10-13T03:22:57;22.27;;;10.35;;
23578;SDS011;11967;50.852;4.400;2023-10-13T03:25:24;18.10;;;10.10;;
23578;SDS011;11967;50.852;4.400;2023-10-13T03:28:02;21.83;;;10.38;;
23578;SDS011;11967;50.852;4.400;2023-10-13T03:30:32;20.25;;;9.55;;
23578;SDS011;11967;50.852;4.400;2023-10-13T03:33:07;25.65;;;9.82;;
23578;SDS011;11967;50.852;4.400;2023-10-13T03:35:50;20.63;;;9.98;;
23578;SDS011;11967;50.852;4.400;2023-10-13T03:38:23;20.85;;;9.57;;
23578;SDS011;11967;50.852;4.400;2023-10-13T03:40:52;19.05;;;9.38;;
23578;SDS011;11967;50.852;4.400;2023-10-13T03:43:21;25.23;;;9.95;;
23578;SDS011;11967;50.852;4.400;2023-10-13T03:45:48;22.05;;;10.23;;
23578;SDS011;11967;50.852;4.400;2023-10-13T03:48:25;28.27;;;10.73;;
23578;SDS011;11967;50.852;4.400;2023-10-13T03:50:55;21.92;;;9.80;;
23578;SDS011;11967;50.852;4.400;2023-10-13T03:53:31;17.60;;;9.13;;
23578;SDS011;11967;50.852;4.400;2023-10-13T03:56:04;23.00;;;9.52;;
23578;SDS011;11967;50.852;4.400;2023-10-13T03:58:37;19.38;;;9.40;;
23578;SDS011;11967;50.852;4.400;2023-10-13T04:01:12;17.80;;;8.15;;
23578;SDS011;11967;50.852;4.400;2023-10-13T04:03:42;17.33;;;8.70;;
23578;SDS011;11967;50.852;4.400;2023-10-13T04:06:29;17.88;;;8.70;;
23578;SDS011;11967;50.852;4.400;2023-10-13T04:09:19;19.80;;;8.68;;
23578;SDS011;11967;50.852;4.400;2023-10-13T04:11:58;17.60;;;8.50;;
23578;SDS011;11967;50.852;4.400;2023-10-13T04:14:40;17.65;;;8.52;;
23578;SDS011;11967;50.852;4.400;2023-10-13T04:17:28;20.42;;;8.88;;
23578;SDS011;11967;50.852;4.400;2023-10-13T04:19:58;20.27;;;8.77;;
23578;SDS011;11967;50.852;4.400;2023-10-13T04:22:37;22.25;;;8.80;;
23578;SDS011;11967;50.852;4.400;2023-10-13T04:27:57;21.38;;;8.90;;
23578;SDS011;11967;50.852;4.400;2023-10-13T04:30:58;24.50;;;8.80;;
23578;SDS011;11967;50.852;4.400;2023-10-13T04:33:49;20.67;;;8.82;;
23578;SDS011;11967;50.852;4.400;2023-10-13T04:36:21;22.73;;;8.40;;
23578;SDS011;11967;50.852;4.400;2023-10-13T04:39:01;20.08;;;8.45;;
23578;SDS011;11967;50.852;4.400;2023-10-13T04:41:34;19.63;;;7.40;;
23578;SDS011;11967;50.852;4.400;2023-10-13T04:44:23;21.25;;;8.15;;
23578;SDS011;11967;50.852;4.400;2023-10-13T04:46:55;23.05;;;8.75;;
23578;SDS011;11967;50.852;4.400;2023-10-13T04:49:25;21.90;;;8.13;;
23578;SDS011;11967;50.852;4.400;2023-10-13T04:52:07;19.90;;;7.95;;
23578;SDS011;11967;50.852;4.400;2023-10-13T04:54:34;29.75;;;8.65;;
23578;SDS011;11967;50.852;4.400;2023-10-13T04:57:12;21.02;;;8.40;;
23578;SDS011;11967;50.852;4.400;2023-10-13T04:59:51;21.38;;;8.90;;
23578;SDS011;11967;50.852;4.400;2023-10-13T05:02:36;26.95;;;9.75;;
23578;SDS011;11967;50.852;4.400;2023-10-13T05:05:14;22.38;;;8.82;;
23578;SDS011;11967;50.852;4.400;2023-10-13T05:07:43;21.85;;;8.32;;
23578;SDS011;11967;50.852;4.400;2023-10-13T05:10:28;20.67;;;8.02;;
23578;SDS011;11967;50.852;4.400;2023-10-13T05:13:13;20.08;;;7.72;;
23578;SDS011;11967;50.852;4.400;2023-10-13T05:15:58;20.02;;;7.72;;
23578;SDS011;11967;50.852;4.400;2023-10-13T05:18:42;19.77;;;7.72;;
23578;SDS011;11967;50.852;4.400;2023-10-13T05:21:26;25.00;;;7.40;;
23578;SDS011;11967;50.852;4.400;2023-10-13T05:24:11;19.25;;;7.15;;
23578;SDS011;11967;50.852;4.400;2023-10-13T05:26:55;24.00;;;7.07;;
23578;SDS011;11967;50.852;4.400;2023-10-13T05:29:42;25.77;;;7.15;;
23578;SDS011;11967;50.852;4.400;2023-10-13T05:32:29;20.73;;;6.68;;
23578;SDS011;11967;50.852;4.400;2023-10-13T05:35:13;22.30;;;6.95;;
23578;SDS011;11967;50.852;4.400;2023-10-13T05:37:59;23.23;;;6.85;;
23578;SDS011;11967;50.852;4.400;2023-10-13T05:43:37;20.33;;;6.88;;
23578;SDS011;11967;50.852;4.400;2023-10-13T05:46:21;20.73;;;6.97;;
23578;SDS011;11967;50.852;4.400;2023-10-13T05:48:50;21.60;;;7.25;;
23578;SDS011;11967;50.852;4.400;2023-10-13T05:51:28;21.75;;;6.50;;
23578;SDS011;11967;50.852;4.400;2023-10-13T05:54:10;21.80;;;6.95;;
23578;SDS011;11967;50.852;4.400;2023-10-13T05:56:48;24.33;;;6.57;;
23578;SDS011;11967;50.852;4.400;2023-10-13T05:59:35;18.63;;;6.35;;
23578;SDS011;11967;50.852;4.400;2023-10-13T06:02:21;26.88;;;6.95;;
23578;SDS011;11967;50.852;4.400;2023-10-13T06:05:07;17.70;;;6.40;;
23578;SDS011;11967;50.852;4.400;2023-10-13T06:07:55;22.42;;;6.68;;
23578;SDS011;11967;50.852;4.400;2023-10-13T06:10:40;19.35;;;6.55;;
23578;SDS011;11967;50.852;4.400;2023-10-13T06:13:25;23.83;;;6.88;;
23578;SDS011;11967;50.852;4.400;2023-10-13T06:16:10;20.40;;;7.13;;
23578;SDS011;11967;50.852;4.400;2023-10-13T06:18:55;25.73;;;6.65;;
23578;SDS011;11967;50.852;4.400;2023-10-13T06:21:40;18.33;;;6.28;;
23578;SDS011;11967;50.852;4.400;2023-10-13T06:24:25;19.80;;;6.70;;
23578;SDS011;11967;50.852;4.400;2023-10-13T06:27:09;26.88;;;6.85;;
23578;SDS011;11967;50.852;4.400;2023-10-13T06:29:53;23.55;;;6.80;;
23578;SDS011;11967;50.852;4.400;2023-10-13T06:32:19;19.15;;;6.13;;
23578;SDS011;11967;50.852;4.400;2023-10-13T06:34:48;23.75;;;7.15;;
23578;SDS011;11967;50.852;4.400;2023-10-13T06:37:14;23.33;;;7.10;;
23578;SDS011;11967;50.852;4.400;2023-10-13T06:39:54;21.08;;;6.88;;
23578;SDS011;11967;50.852;4.400;2023-10-13T06:42:28;19.38;;;7.28;;
23578;SDS011;11967;50.852;4.400;2023-10-13T06:44:54;21.38;;;7.30;;
23578;SDS011;11967;50.852;4.400;2023-10-13T06:47:21;15.85;;;6.85;;
23578;SDS011;11967;50.852;4.400;2023-10-13T06:49:50;26.85;;;6.60;;
23578;SDS011;11967;50.852;4.400;2023-10-13T06:52:19;24.13;;;7.43;;
23578;SDS011;11967;50.852;4.400;2023-10-13T06:54:49;25.73;;;6.80;;
23578;SDS011;11967;50.852;4.400;2023-10-13T06:57:15;24.23;;;6.50;;
23578;SDS011;11967;50.852;4.400;2023-10-13T06:59:48;20.42;;;6.63;;
23578;SDS011;11967;50.852;4.400;2023-10-13T07:02:14;27.27;;;7.07;;
23578;SDS011;11967;50.852;4.400;2023-10-13T07:04:49;21.70;;;6.68;;
23578;SDS011;11967;50.852;4.400;2023-10-13T07:07:36;26.15;;;7.47;;
23578;SDS011;11967;50.852;4.400;2023-10-13T07:10:07;16.17;;;6.70;;
23578;SDS011;11967;50.852;4.400;2023-10-13T07:12:39;25.08;;;7.03;;
23578;SDS011;11967;50.852;4.400;2023-10-13T07:15:08;21.70;;;6.88;;
23578;SDS011;11967;50.852;4.400;2023-10-13T07:17:53;20.10;;;6.70;;
23578;SDS011;11967;50.852;4.400;2023-10-13T07:20:24;21.98;;;7.95;;
23578;SDS011;11967;50.852;4.400;2023-10-13T07:22:53;22.02;;;6.70;;
23578;SDS011;11967;50.852;4.400;2023-10-13T07:25:29;20.30;;;7.93;;
23578;SDS011;11967;50.852;4.400;2023-10-13T07:28:01;26.67;;;7.30;;
23578;SDS011;11967;50.852;4.400;2023-10-13T07:30:28;18.73;;;6.80;;
23578;SDS011;11967;50.852;4.400;2023-10-13T07:32:56;15.65;;;7.10;;
23578;SDS011;11967;50.852;4.400;2023-10-13T07:35:24;24.13;;;7.55;;
23578;SDS011;11967;50.852;4.400;2023-10-13T07:37:50;24.50;;;7.18;;
23578;SDS011;11967;50.852;4.400;2023-10-13T07:40:19;24.38;;;7.07;;
23578;SDS011;11967;50.852;4.400;2023-10-13T07:42:49;22.75;;;7.20;;
23578;SDS011;11967;50.852;4.400;2023-10-13T07:45:15;22.92;;;6.90;;
23578;SDS011;11967;50.852;4.400;2023-10-13T07:47:50;16.33;;;6.63;;
23578;SDS011;11967;50.852;4.400;2023-10-13T07:50:16;17.13;;;6.95;;
23578;SDS011;11967;50.852;4.400;2023-10-13T07:52:50;17.70;;;6.60;;
23578;SDS011;11967;50.852;4.400;2023-10-13T07:55:30;21.55;;;7.18;;
23578;SDS011;11967;50.852;4.400;2023-10-13T07:57:59;22.20;;;7.35;;
23578;SDS011;11967;50.852;4.400;2023-10-13T08:00:26;18.73;;;7.40;;
23578;SDS011;11967;50.852;4.400;2023-10-13T08:03:03;19.40;;;7.35;;
23578;SDS011;11967;50.852;4.400;2023-10-13T08:05:45;25.02;;;7.57;;
23578;SDS011;11967;50.852;4.400;2023-10-13T08:08:44;25.92;;;7.05;;
23578;SDS011;11967;50.852;4.400;2023-10-13T08:11:15;18.88;;;6.53;;
23578;SDS011;11967;50.852;4.400;2023-10-13T08:13:57;15.85;;;6.90;;
23578;SDS011;11967;50.852;4.400;2023-10-13T08:16:36;21.33;;;7.25;;
23578;SDS011;11967;50.852;4.400;2023-10-13T08:19:22;20.75;;;6.60;;
23578;SDS011;11967;50.852;4.400;2023-10-13T08:22:09;20.45;;;7.18;;
23578;SDS011;11967;50.852;4.400;2023-10-13T08:24:41;19.23;;;6.75;;
23578;SDS011;11967;50.852;4.400;2023-10-13T08:27:07;20.60;;;7.13;;
23578;SDS011;11967;50.852;4.400;2023-10-13T08:29:51;26.05;;;7.15;;
23578;SDS011;11967;50.852;4.400;2023-10-13T08:32:20;18.15;;;7.35;;
23578;SDS011;11967;50.852;4.400;2023-10-13T08:34:51;18.88;;;6.97;;
23578;SDS011;11967;50.852;4.400;2023-10-13T08:37:17;22.08;;;7.00;;
23578;SDS011;11967;50.852;4.400;2023-10-13T08:39:47;19.05;;;7.65;;
23578;SDS011;11967;50.852;4.400;2023-10-13T08:42:37;18.20;;;7.35;;
23578;SDS011;11967;50.852;4.400;2023-10-13T08:45:13;24.77;;;7.45;;
23578;SDS011;11967;50.852;4.400;2023-10-13T08:48:06;28.35;;;8.20;;
23578;SDS011;11967;50.852;4.400;2023-10-13T08:50:47;24.80;;;7.65;;
23578;SDS011;11967;50.852;4.400;2023-10-13T08:56:00;20.20;;;7.45;;
23578;SDS011;11967;50.852;4.400;2023-10-13T08:58:31;20.40;;;7.13;;
23578;SDS011;11967;50.852;4.400;2023-10-13T09:01:17;21.42;;;7.68;;
23578;SDS011;11967;50.852;4.400;2023-10-13T09:07:05;16.52;;;7.75;;
23578;SDS011;11967;50.852;4.400;2023-10-13T09:09:34;19.33;;;7.53;;
23578;SDS011;11967;50.852;4.400;2023-10-13T09:12:25;23.50;;;7.93;;
23578;SDS011;11967;50.852;4.400;2023-10-13T09:14:59;22.65;;;7.68;;
23578;SDS011;11967;50.852;4.400;2023-10-13T09:17:46;19.52;;;7.25;;
23578;SDS011;11967;50.852;4.400;2023-10-13T09:20:16;26.27;;;8.43;;
23578;SDS011;11967;50.852;4.400;2023-10-13T09:23:11;25.20;;;7.80;;
23578;SDS011;11967;50.852;4.400;2023-10-13T09:25:51;21.00;;;8.13;;
23578;SDS011;11967;50.852;4.400;2023-10-13T09:28:23;18.55;;;7.82;;
23578;SDS011;11967;50.852;4.400;2023-10-13T09:30:52;20.67;;;8.02;;
23578;SDS011;11967;50.852;4.400;2023-10-13T09:33:25;20.98;;;7.65;;
23578;SDS011;11967;50.852;4.400;2023-10-13T09:36:04;17.77;;;7.70;;
23578;SDS011;11967;50.852;4.400;2023-10-13T09:38:33;23.42;;;7.95;;
23578;SDS011;11967;50.852;4.400;2023-10-13T09:41:01;21.73;;;7.90;;
23578;SDS011;11967;50.852;4.400;2023-10-13T09:43:43;23.08;;;7.95;;
23578;SDS011;11967;50.852;4.400;2023-10-13T09:46:10;26.92;;;8.40;;
23578;SDS011;11967;50.852;4.400;2023-10-13T09:48:58;17.08;;;7.07;;
23578;SDS011;11967;50.852;4.400;2023-10-13T09:51:32;21.85;;;8.25;;
23578;SDS011;11967;50.852;4.400;2023-10-13T09:57:12;24.65;;;8.20;;
23578;SDS011;11967;50.852;4.400;2023-10-13T09:59:50;24.08;;;8.00;;
23578;SDS011;11967;50.852;4.400;2023-10-13T10:02:21;21.65;;;8.52;;
23578;SDS011;11967;50.852;4.400;2023-10-13T10:04:56;22.88;;;8.05;;
23578;SDS011;11967;50.852;4.400;2023-10-13T10:07:38;17.58;;;7.63;;
23578;SDS011;11967;50.852;4.400;2023-10-13T10:10:05;22.33;;;8.18;;
23578;SDS011;11967;50.852;4.400;2023-10-13T10:15:34;23.25;;;7.93;;
23578;SDS011;11967;50.852;4.400;2023-10-13T10:18:03;26.80;;;8.68;;
23578;SDS011;11967;50.852;4.400;2023-10-13T10:20:33;21.65;;;7.57;;
23578;SDS011;11967;50.852;4.400;2023-10-13T10:23:23;22.20;;;8.00;;
23578;SDS011;11967;50.852;4.400;2023-10-13T10:25:54;28.48;;;7.85;;
23578;SDS011;11967;50.852;4.400;2023-10-13T10:28:44;22.30;;;7.95;;
23578;SDS011;11967;50.852;4.400;2023-10-13T10:31:11;26.75;;;7.80;;
23578;SDS011;11967;50.852;4.400;2023-10-13T10:33:42;32.17;;;7.80;;
23578;SDS011;11967;50.852;4.400;2023-10-13T10:36:08;22.80;;;7.60;;
23578;SDS011;11967;50.852;4.400;2023-10-13T10:38:53;23.83;;;7.75;;
23578;SDS011;11967;50.852;4.400;2023-10-13T10:41:29;25.90;;;7.18;;
23578;SDS011;11967;50.852;4.400;2023-10-13T10:44:14;27.23;;;8.73;;
23578;SDS011;11967;50.852;4.400;2023-10-13T10:47:08;25.10;;;7.32;;
23578;SDS011;11967;50.852;4.400;2023-10-13T10:49:38;25.40;;;7.78;;
23578;SDS011;11967;50.852;4.400;2023-10-13T10:52:04;27.67;;;7.90;;
23578;SDS011;11967;50.852;4.400;2023-10-13T10:54:39;30.52;;;8.18;;
23578;SDS011;11967;50.852;4.400;2023-10-13T10:57:09;23.52;;;7.43;;
23578;SDS011;11967;50.852;4.400;2023-10-13T10:59:42;24.10;;;7.68;;
23578;SDS011;11967;50.852;4.400;2023-10-13T11:02:08;24.30;;;8.13;;
23578;SDS011;11967;50.852;4.400;2023-10-13T11:04:40;28.33;;;7.95;;
23578;SDS011;11967;50.852;4.400;2023-10-13T11:07:20;22.77;;;7.72;;
23578;SDS011;11967;50.852;4.400;2023-10-13T11:09:48;27.52;;;7.57;;
23578;SDS011;11967;50.852;4.400;2023-10-13T11:12:18;21.88;;;7.75;;
23578;SDS011;11967;50.852;4.400;2023-10-13T11:15:01;28.15;;;8.30;;
23578;SDS011;11967;50.852;4.400;2023-10-13T11:17:58;26.85;;;8.43;;
23578;SDS011;11967;50.852;4.400;2023-10-13T11:20:24;25.23;;;7.97;;
23578;SDS011;11967;50.852;4.400;2023-10-13T11:23:10;21.23;;;7.43;;
23578;SDS011;11967;50.852;4.400;2023-10-13T11:25:36;26.20;;;7.53;;
23578;SDS011;11967;50.852;4.400;2023-10-13T11:28:12;26.65;;;7.93;;
23578;SDS011;11967;50.852;4.400;2023-10-13T11:30:45;28.75;;;8.95;;
23578;SDS011;11967;50.852;4.400;2023-10-13T11:33:17;26.30;;;8.05;;
23578;SDS011;11967;50.852;4.400;2023-10-13T11:35:45;22.88;;;7.35;;
23578;SDS011;11967;50.852;4.400;2023-10-13T11:43:31;24.58;;;8.05;;
23578;SDS011;11967;50.852;4.400;2023-10-13T11:46:01;23.98;;;7.80;;
23578;SDS011;11967;50.852;4.400;2023-10-13T11:48:36;26.10;;;8.23;;
23578;SDS011;11967;50.852;4.400;2023-10-13T11:51:02;23.10;;;7.47;;
23578;SDS011;11967;50.852;4.400;2023-10-13T11:53:33;29.88;;;7.85;;
23578;SDS011;11967;50.852;4.400;2023-10-13T11:56:00;23.85;;;7.72;;
23578;SDS011;11967;50.852;4.400;2023-10-13T11:58:26;22.40;;;7.43;;
23578;SDS011;11967;50.852;4.400;2023-10-13T12:00:54;26.02;;;7.35;;
23578;SDS011;11967;50.852;4.400;2023-10-13T12:03:33;25.17;;;7.32;;
23578;SDS011;11967;50.852;4.400;2023-10-13T12:06:17;23.48;;;7.50;;
23578;SDS011;11967;50.852;4.400;2023-10-13T12:09:04;24.95;;;6.88;;
23578;SDS011;11967;50.852;4.400;2023-10-13T12:11:47;20.55;;;6.82;;
23578;SDS011;11967;50.852;4.400;2023-10-13T12:14:16;21.30;;;7.18;;
23578;SDS011;11967;50.852;4.400;2023-10-13T12:16:44;21.02;;;6.50;;
23578;SDS011;11967;50.852;4.400;2023-10-13T12:19:21;22.77;;;6.88;;
23578;SDS011;11967;50.852;4.400;2023-10-13T12:21:55;22.70;;;7.88;;
23578;SDS011;11967;50.852;4.400;2023-10-13T12:24:22;20.95;;;6.97;;
23578;SDS011;11967;50.852;4.400;2023-10-13T12:27:01;22.33;;;7.53;;
23578;SDS011;11967;50.852;4.400;2023-10-13T12:29:51;21.20;;;7.18;;
23578;SDS011;11967;50.852;4.400;2023-10-13T12:32:17;24.08;;;7.28;;
23578;SDS011;11967;50.852;4.400;2023-10-13T12:34:55;18.95;;;6.72;;
23578;SDS011;11967;50.852;4.400;2023-10-13T12:37:24;23.48;;;6.80;;
23578;SDS011;11967;50.852;4.400;2023-10-13T12:40:18;21.45;;;7.00;;
23578;SDS011;11967;50.852;4.400;2023-10-13T12:43:03;18.70;;;7.20;;
23578;SDS011;11967;50.852;4.400;2023-10-13T12:45:48;20.45;;;6.57;;
23578;SDS011;11967;50.852;4.400;2023-10-13T12:48:34;24.08;;;7.55;;
23578;SDS011;11967;50.852;4.400;2023-10-13T12:51:20;22.38;;;6.43;;
23578;SDS011;11967;50.852;4.400;2023-10-13T12:56:16;18.35;;;6.35;;
23578;SDS011;11967;50.852;4.400;2023-10-13T12:58:42;20.35;;;6.60;;
23578;SDS011;11967;50.852;4.400;2023-10-13T13:01:24;21.88;;;6.90;;
23578;SDS011;11967;50.852;4.400;2023-10-13T13:03:52;33.30;;;6.55;;
23578;SDS011;11967;50.852;4.400;2023-10-13T13:06:27;21.15;;;6.65;;
23578;SDS011;11967;50.852;4.400;2023-10-13T13:08:58;24.90;;;7.28;;
23578;SDS011;11967;50.852;4.400;2023-10-13T13:13:56;22.33;;;7.43;;
23578;SDS011;11967;50.852;4.400;2023-10-13T13:16:22;28.67;;;7.28;;
23578;SDS011;11967;50.852;4.400;2023-10-13T13:18:55;17.80;;;6.35;;
23578;SDS011;11967;50.852;4.400;2023-10-13T13:21:21;14.48;;;6.55;;
23578;SDS011;11967;50.852;4.400;2023-10-13T13:23:52;17.55;;;6.70;;
23578;SDS011;11967;50.852;4.400;2023-10-13T13:26:20;18.27;;;6.00;;
23578;SDS011;11967;50.852;4.400;2023-10-13T13:28:47;22.27;;;6.82;;
23578;SDS011;11967;50.852;4.400;2023-10-13T13:31:17;17.80;;;6.57;;
23578;SDS011;11967;50.852;4.400;2023-10-13T13:33:44;16.27;;;6.60;;
23578;SDS011;11967;50.852;4.400;2023-10-13T13:36:12;16.42;;;6.45;;
23578;SDS011;11967;50.852;4.400;2023-10-13T13:38:41;18.73;;;6.60;;
23578;SDS011;11967;50.852;4.400;2023-10-13T13:41:14;16.38;;;6.65;;
23578;SDS011;11967;50.852;4.400;2023-10-13T13:43:43;12.38;;;6.40;;
23578;SDS011;11967;50.852;4.400;2023-10-13T13:46:17;18.27;;;7.00;;
23578;SDS011;11967;50.852;4.400;2023-10-13T13:48:44;17.02;;;6.22;;
23578;SDS011;11967;50.852;4.400;2023-10-13T13:51:13;19.83;;;6.78;;
23578;SDS011;11967;50.852;4.400;2023-10-13T13:53:52;17.90;;;6.22;;
23578;SDS011;11967;50.852;4.400;2023-10-13T13:56:18;19.17;;;6.22;;
23578;SDS011;11967;50.852;4.400;2023-10-13T13:58:45;17.63;;;7.15;;
23578;SDS011;11967;50.852;4.400;2023-10-13T14:01:12;16.70;;;6.20;;
23578;SDS011;11967;50.852;4.400;2023-10-13T14:03:45;14.85;;;7.07;;
23578;SDS011;11967;50.852;4.400;2023-10-13T14:06:15;19.58;;;6.50;;
23578;SDS011;11967;50.852;4.400;2023-10-13T14:08:54;21.67;;;6.93;;
23578;SDS011;11967;50.852;4.400;2023-10-13T14:11:21;13.98;;;6.38;;
23578;SDS011;11967;50.852;4.400;2023-10-13T14:14:05;15.23;;;6.78;;
23578;SDS011;11967;50.852;4.400;2023-10-13T14:16:40;21.95;;;7.30;;
23578;SDS011;11967;50.852;4.400;2023-10-13T14:19:10;17.20;;;7.13;;
23578;SDS011;11967;50.852;4.400;2023-10-13T14:21:36;17.88;;;6.47;;
23578;SDS011;11967;50.852;4.400;2023-10-13T14:24:02;26.02;;;7.20;;
23578;SDS011;11967;50.852;4.400;2023-10-13T14:26:37;16.55;;;6.43;;
23578;SDS011;11967;50.852;4.400;2023-10-13T14:29:03;19.20;;;6.50;;
23578;SDS011;11967;50.852;4.400;2023-10-13T14:31:33;18.92;;;6.63;;
23578;SDS011;11967;50.852;4.400;2023-10-13T14:34:02;15.38;;;6.45;;
23578;SDS011;11967;50.852;4.400;2023-10-13T14:36:28;18.05;;;6.68;;
23578;SDS011;11967;50.852;4.400;2023-10-13T14:38:54;20.60;;;6.90;;
23578;SDS011;11967;50.852;4.400;2023-10-13T14:41:20;19.70;;;6.60;;
23578;SDS011;11967;50.852;4.400;2023-10-13T14:43:46;15.55;;;6.22;;
23578;SDS011;11967;50.852;4.400;2023-10-13T14:46:19;19.98;;;6.90;;
23578;SDS011;11967;50.852;4.400;2023-10-13T14:48:51;18.38;;;6.70;;
23578;SDS011;11967;50.852;4.400;2023-10-13T14:51:17;20.80;;;7.03;;
23578;SDS011;11967;50.852;4.400;2023-10-13T14:53:46;17.85;;;7.13;;
23578;SDS011;11967;50.852;4.400;2023-10-13T14:56:16;11.70;;;6.50;;
23578;SDS011;11967;50.852;4.400;2023-10-13T14:58:42;17.80;;;7.15;;
23578;SDS011;11967;50.852;4.400;2023-10-13T15:03:41;15.32;;;6.05;;
23578;SDS011;11967;50.852;4.400;2023-10-13T15:06:07;15.52;;;6.70;;
23578;SDS011;11967;50.852;4.400;2023-10-13T15:08:33;18.38;;;6.65;;
23578;SDS011;11967;50.852;4.400;2023-10-13T15:11:07;17.73;;;6.60;;
23578;SDS011;11967;50.852;4.400;2023-10-13T15:13:37;16.33;;;6.90;;
23578;SDS011;11967;50.852;4.400;2023-10-13T15:16:25;16.30;;;6.63;;
23578;SDS011;11967;50.852;4.400;2023-10-13T15:18:52;19.35;;;6.72;;
23578;SDS011;11967;50.852;4.400;2023-10-13T15:21:25;15.05;;;6.85;;
23578;SDS011;11967;50.852;4.400;2023-10-13T15:23:53;19.67;;;6.68;;
23578;SDS011;11967;50.852;4.400;2023-10-13T15:26:24;19.88;;;6.75;;
23578;SDS011;11967;50.852;4.400;2023-10-13T15:28:50;13.40;;;6.40;;
23578;SDS011;11967;50.852;4.400;2023-10-13T15:31:22;20.10;;;7.15;;
23578;SDS011;11967;50.852;4.400;2023-10-13T15:33:52;20.38;;;6.90;;
23578;SDS011;11967;50.852;4.400;2023-10-13T15:36:20;18.98;;;6.63;;
23578;SDS011;11967;50.852;4.400;2023-10-13T15:38:49;14.75;;;6.32;;
23578;SDS011;11967;50.852;4.400;2023-10-13T15:41:23;18.77;;;6.22;;
23578;SDS011;11967;50.852;4.400;2023-10-13T15:43:52;25.33;;;6.93;;
23578;SDS011;11967;50.852;4.400;2023-10-13T15:46:19;22.45;;;6.63;;